sensor_id;sensor_type;location;lat;lon;timestamp;P1;durP1;ratioP1;P2;durP2;ratioP2
74777;SDS011;63298;53.164;8.610;2022-11-15T00:00:50;19.25;;;10.95;;
74777;SDS011;63298;53.164;8.610;2022-11-15T00:03:17;20.05;;;10.85;;
74777;SDS011;63298;53.164;8.610;2022-11-15T00:05:44;22.27;;;11.27;;
74777;SDS011;63298;53.164;8.610;2022-11-15T00:08:10;23.05;;;10.90;;
74777;SDS011;63298;53.164;8.610;2022-11-15T00:10:36;21.65;;;10.63;;
74777;SDS011;63298;53.164;8.610;2022-11-15T00:13:08;23.48;;;10.93;;
74777;SDS011;63298;53.164;8.610;2022-11-15T00:15:38;18.73;;;10.15;;
74777;SDS011;63298;53.164;8.610;2022-11-15T00:18:05;22.42;;;11.15;;
74777;SDS011;63298;53.164;8.610;2022-11-15T00:20:35;21.05;;;10.95;;
74777;SDS011;63298;53.164;8.610;2022-11-15T00:23:02;22.88;;;10.73;;
74777;SDS011;63298;53.164;8.610;2022-11-15T00:25:28;20.33;;;10.93;;
74777;SDS011;63298;53.164;8.610;2022-11-15T00:27:57;20.55;;;11.68;;
74777;SDS011;63298;53.164;8.610;2022-11-15T00:30:23;17.92;;;10.48;;
74777;SDS011;63298;53.164;8.610;2022-11-15T00:32:49;18.10;;;10.40;;
74777;SDS011;63298;53.164;8.610;2022-11-15T00:35:15;21.92;;;11.00;;
74777;SDS011;63298;53.164;8.610;2022-11-15T00:37:42;20.95;;;10.48;;
74777;SDS011;63298;53.164;8.610;2022-11-15T00:40:07;16.67;;;9.90;;
74777;SDS011;63298;53.164;8.610;2022-11-15T00:42:36;17.20;;;10.10;;
74777;SDS011;63298;53.164;8.610;2022-11-15T00:45:02;20.70;;;10.43;;
74777;SDS011;63298;53.164;8.610;2022-11-15T00:47:28;15.40;;;9.20;;
74777;SDS011;63298;53.164;8.610;2022-11-15T00:49:53;19.33;;;9.73;;
74777;SDS011;63298;53.164;8.610;2022-11-15T00:52:18;18.02;;;9.77;;
74777;SDS011;63298;53.164;8.610;2022-11-15T00:54:44;17.80;;;9.10;;
74777;SDS011;63298;53.164;8.610;2022-11-15T00:57:09;15.35;;;9.15;;
74777;SDS011;63298;53.164;8.610;2022-11-15T00:59:35;19.85;;;9.48;;
74777;SDS011;63298;53.164;8.610;2022-11-15T01:02:00;19.73;;;9.30;;
74777;SDS011;63298;53.164;8.610;2022-11-15T01:04:26;16.40;;;9.07;;
74777;SDS011;63298;53.164;8.610;2022-11-15T01:06:51;18.05;;;8.73;;
74777;SDS011;63298;53.164;8.610;2022-11-15T01:09:16;14.50;;;8.68;;
74777;SDS011;63298;53.164;8.610;2022-11-15T01:11:42;17.38;;;9.45;;
74777;SDS011;63298;53.164;8.610;2022-11-15T01:14:07;15.50;;;8.90;;
74777;SDS011;63298;53.164;8.610;2022-11-15T01:16:33;19.30;;;9.80;;
74777;SDS011;63298;53.164;8.610;2022-11-15T01:18:58;18.73;;;9.02;;
74777;SDS011;63298;53.164;8.610;2022-11-15T01:21:25;20.17;;;10.02;;
74777;SDS011;63298;53.164;8.610;2022-11-15T01:23:54;18.98;;;9.38;;
74777;SDS011;63298;53.164;8.610;2022-11-15T01:26:21;17.90;;;9.52;;
74777;SDS011;63298;53.164;8.610;2022-11-15T01:28:47;14.95;;;8.88;;
74777;SDS011;63298;53.164;8.610;2022-11-15T01:31:14;15.20;;;8.95;;
74777;SDS011;63298;53.164;8.610;2022-11-15T01:33:42;15.93;;;8.90;;
74777;SDS011;63298;53.164;8.610;2022-11-15T01:36:10;16.38;;;8.70;;
74777;SDS011;63298;53.164;8.610;2022-11-15T01:38:38;16.50;;;8.95;;
74777;SDS011;63298;53.164;8.610;2022-11-15T01:41:04;13.23;;;8.45;;
74777;SDS011;63298;53.164;8.610;2022-11-15T01:46:00;17.05;;;8.45;;
74777;SDS011;63298;53.164;8.610;2022-11-15T01:48:34;14.80;;;8.50;;
74777;SDS011;63298;53.164;8.610;2022-11-15T01:51:00;15.52;;;8.88;;
74777;SDS011;63298;53.164;8.610;2022-11-15T01:53:30;16.20;;;8.80;;
74777;SDS011;63298;53.164;8.610;2022-11-15T01:55:59;15.38;;;9.45;;
74777;SDS011;63298;53.164;8.610;2022-11-15T01:58:28;17.85;;;9.00;;
74777;SDS011;63298;53.164;8.610;2022-11-15T02:00:54;16.27;;;8.70;;
74777;SDS011;63298;53.164;8.610;2022-11-15T02:03:20;16.70;;;8.65;;
74777;SDS011;63298;53.164;8.610;2022-11-15T02:08:15;13.43;;;8.52;;
74777;SDS011;63298;53.164;8.610;2022-11-15T02:10:40;15.57;;;8.32;;
74777;SDS011;63298;53.164;8.610;2022-11-15T02:13:06;15.68;;;9.05;;
74777;SDS011;63298;53.164;8.610;2022-11-15T02:15:34;18.80;;;9.55;;
74777;SDS011;63298;53.164;8.610;2022-11-15T02:18:07;16.25;;;8.52;;
74777;SDS011;63298;53.164;8.610;2022-11-15T02:29:55;16.63;;;9.63;;
74777;SDS011;63298;53.164;8.610;2022-11-15T02:32:28;16.25;;;8.68;;
74777;SDS011;63298;53.164;8.610;2022-11-15T02:37:52;18.27;;;9.60;;
74777;SDS011;63298;53.164;8.610;2022-11-15T02:40:29;18.48;;;8.73;;
74777;SDS011;63298;53.164;8.610;2022-11-15T02:42:57;16.08;;;8.20;;
74777;SDS011;63298;53.164;8.610;2022-11-15T02:45:29;17.55;;;8.57;;
74777;SDS011;63298;53.164;8.610;2022-11-15T02:47:58;15.75;;;9.18;;
74777;SDS011;63298;53.164;8.610;2022-11-15T02:50:26;17.58;;;9.27;;
74777;SDS011;63298;53.164;8.610;2022-11-15T02:52:54;14.95;;;8.05;;
74777;SDS011;63298;53.164;8.610;2022-11-15T02:55:31;16.85;;;9.23;;
74777;SDS011;63298;53.164;8.610;2022-11-15T03:06:52;19.05;;;8.88;;
74777;SDS011;63298;53.164;8.610;2022-11-15T03:09:34;15.32;;;8.52;;
74777;SDS011;63298;53.164;8.610;2022-11-15T03:15:25;13.43;;;7.82;;
74777;SDS011;63298;53.164;8.610;2022-11-15T03:18:00;13.88;;;8.07;;
74777;SDS011;63298;53.164;8.610;2022-11-15T03:20:31;16.73;;;7.53;;
74777;SDS011;63298;53.164;8.610;2022-11-15T03:23:00;14.43;;;8.18;;
74777;SDS011;63298;53.164;8.610;2022-11-15T03:25:29;14.32;;;8.35;;
74777;SDS011;63298;53.164;8.610;2022-11-15T03:27:58;14.32;;;8.23;;
74777;SDS011;63298;53.164;8.610;2022-11-15T03:30:28;15.07;;;7.90;;
74777;SDS011;63298;53.164;8.610;2022-11-15T03:32:58;16.92;;;8.88;;
74777;SDS011;63298;53.164;8.610;2022-11-15T03:35:27;16.52;;;9.07;;
74777;SDS011;63298;53.164;8.610;2022-11-15T03:40:49;18.33;;;9.13;;
74777;SDS011;63298;53.164;8.610;2022-11-15T03:46:14;16.67;;;8.70;;
74777;SDS011;63298;53.164;8.610;2022-11-15T03:49:08;21.33;;;9.38;;
74777;SDS011;63298;53.164;8.610;2022-11-15T03:51:38;16.15;;;8.70;;
74777;SDS011;63298;53.164;8.610;2022-11-15T03:54:04;18.20;;;9.57;;
74777;SDS011;63298;53.164;8.610;2022-11-15T03:56:31;14.90;;;8.35;;
74777;SDS011;63298;53.164;8.610;2022-11-15T03:58:57;16.70;;;8.73;;
74777;SDS011;63298;53.164;8.610;2022-11-15T04:01:24;17.13;;;9.48;;
74777;SDS011;63298;53.164;8.610;2022-11-15T04:03:50;19.00;;;9.38;;
74777;SDS011;63298;53.164;8.610;2022-11-15T04:06:18;18.92;;;9.27;;
74777;SDS011;63298;53.164;8.610;2022-11-15T04:08:46;16.33;;;8.20;;
74777;SDS011;63298;53.164;8.610;2022-11-15T04:11:14;20.58;;;8.98;;
74777;SDS011;63298;53.164;8.610;2022-11-15T04:13:40;18.25;;;8.75;;
74777;SDS011;63298;53.164;8.610;2022-11-15T04:16:06;17.33;;;8.55;;
74777;SDS011;63298;53.164;8.610;2022-11-15T04:18:32;16.80;;;8.32;;
74777;SDS011;63298;53.164;8.610;2022-11-15T04:20:58;26.20;;;8.57;;
74777;SDS011;63298;53.164;8.610;2022-11-15T04:23:24;20.33;;;8.95;;
74777;SDS011;63298;53.164;8.610;2022-11-15T04:25:51;19.02;;;9.60;;
74777;SDS011;63298;53.164;8.610;2022-11-15T04:28:18;16.10;;;8.57;;
74777;SDS011;63298;53.164;8.610;2022-11-15T04:30:45;18.73;;;8.30;;
74777;SDS011;63298;53.164;8.610;2022-11-15T04:33:11;14.73;;;8.30;;
74777;SDS011;63298;53.164;8.610;2022-11-15T04:35:37;16.10;;;8.32;;
74777;SDS011;63298;53.164;8.610;2022-11-15T04:38:03;16.65;;;8.80;;
74777;SDS011;63298;53.164;8.610;2022-11-15T04:40:30;13.57;;;7.47;;
74777;SDS011;63298;53.164;8.610;2022-11-15T04:42:56;15.00;;;8.10;;
74777;SDS011;63298;53.164;8.610;2022-11-15T04:45:22;14.23;;;7.38;;
74777;SDS011;63298;53.164;8.610;2022-11-15T04:47:48;13.15;;;7.25;;
74777;SDS011;63298;53.164;8.610;2022-11-15T04:50:15;11.75;;;7.15;;
74777;SDS011;63298;53.164;8.610;2022-11-15T04:52:42;14.85;;;7.80;;
74777;SDS011;63298;53.164;8.610;2022-11-15T04:55:14;14.32;;;7.68;;
74777;SDS011;63298;53.164;8.610;2022-11-15T04:57:40;15.80;;;7.80;;
74777;SDS011;63298;53.164;8.610;2022-11-15T05:00:06;14.65;;;7.05;;
74777;SDS011;63298;53.164;8.610;2022-11-15T05:02:34;10.50;;;7.05;;
74777;SDS011;63298;53.164;8.610;2022-11-15T05:04:59;13.13;;;6.85;;
74777;SDS011;63298;53.164;8.610;2022-11-15T05:07:25;16.52;;;6.55;;
74777;SDS011;63298;53.164;8.610;2022-11-15T05:09:51;17.98;;;7.43;;
74777;SDS011;63298;53.164;8.610;2022-11-15T05:12:16;13.55;;;7.07;;
74777;SDS011;63298;53.164;8.610;2022-11-15T05:14:42;20.77;;;7.63;;
74777;SDS011;63298;53.164;8.610;2022-11-15T05:17:07;13.15;;;6.70;;
74777;SDS011;63298;53.164;8.610;2022-11-15T05:19:33;14.65;;;7.05;;
74777;SDS011;63298;53.164;8.610;2022-11-15T05:21:58;13.32;;;7.13;;
74777;SDS011;63298;53.164;8.610;2022-11-15T05:24:24;15.63;;;7.38;;
74777;SDS011;63298;53.164;8.610;2022-11-15T05:26:49;13.75;;;6.80;;
74777;SDS011;63298;53.164;8.610;2022-11-15T05:29:15;11.40;;;6.85;;
74777;SDS011;63298;53.164;8.610;2022-11-15T05:31:41;17.17;;;7.47;;
74777;SDS011;63298;53.164;8.610;2022-11-15T05:34:06;14.18;;;6.82;;
74777;SDS011;63298;53.164;8.610;2022-11-15T05:36:38;13.63;;;7.60;;
74777;SDS011;63298;53.164;8.610;2022-11-15T05:39:07;15.52;;;7.30;;
74777;SDS011;63298;53.164;8.610;2022-11-15T05:41:41;10.18;;;6.80;;
74777;SDS011;63298;53.164;8.610;2022-11-15T05:44:12;13.48;;;6.78;;
74777;SDS011;63298;53.164;8.610;2022-11-15T05:46:42;13.13;;;7.03;;
74777;SDS011;63298;53.164;8.610;2022-11-15T05:49:10;10.85;;;7.05;;
74777;SDS011;63298;53.164;8.610;2022-11-15T05:54:04;12.98;;;7.25;;
74777;SDS011;63298;53.164;8.610;2022-11-15T05:56:29;14.27;;;7.25;;
74777;SDS011;63298;53.164;8.610;2022-11-15T05:58:55;13.77;;;6.82;;
74777;SDS011;63298;53.164;8.610;2022-11-15T06:01:23;12.00;;;7.18;;
74777;SDS011;63298;53.164;8.610;2022-11-15T06:03:51;10.18;;;6.63;;
74777;SDS011;63298;53.164;8.610;2022-11-15T06:06:16;14.93;;;6.95;;
74777;SDS011;63298;53.164;8.610;2022-11-15T06:08:42;10.43;;;6.43;;
74777;SDS011;63298;53.164;8.610;2022-11-15T06:11:07;11.75;;;6.18;;
74777;SDS011;63298;53.164;8.610;2022-11-15T06:13:33;11.80;;;6.20;;
74777;SDS011;63298;53.164;8.610;2022-11-15T06:15:59;16.75;;;6.97;;
74777;SDS011;63298;53.164;8.610;2022-11-15T06:18:24;10.95;;;6.10;;
74777;SDS011;63298;53.164;8.610;2022-11-15T06:20:50;12.30;;;6.78;;
74777;SDS011;63298;53.164;8.610;2022-11-15T06:23:16;12.70;;;6.78;;
74777;SDS011;63298;53.164;8.610;2022-11-15T06:25:42;9.38;;;6.03;;
74777;SDS011;63298;53.164;8.610;2022-11-15T06:28:08;13.32;;;6.93;;
74777;SDS011;63298;53.164;8.610;2022-11-15T06:30:33;15.68;;;6.40;;
74777;SDS011;63298;53.164;8.610;2022-11-15T06:32:59;12.75;;;6.47;;
74777;SDS011;63298;53.164;8.610;2022-11-15T06:35:29;13.82;;;6.65;;
74777;SDS011;63298;53.164;8.610;2022-11-15T06:37:55;14.15;;;6.25;;
74777;SDS011;63298;53.164;8.610;2022-11-15T06:40:26;14.88;;;6.03;;
74777;SDS011;63298;53.164;8.610;2022-11-15T06:42:56;10.45;;;6.68;;
74777;SDS011;63298;53.164;8.610;2022-11-15T06:45:23;13.23;;;6.30;;
74777;SDS011;63298;53.164;8.610;2022-11-15T06:47:48;10.68;;;6.18;;
74777;SDS011;63298;53.164;8.610;2022-11-15T06:50:14;10.80;;;6.68;;
74777;SDS011;63298;53.164;8.610;2022-11-15T06:52:40;13.60;;;6.53;;
74777;SDS011;63298;53.164;8.610;2022-11-15T06:55:06;14.68;;;6.43;;
74777;SDS011;63298;53.164;8.610;2022-11-15T06:57:32;14.82;;;6.50;;
74777;SDS011;63298;53.164;8.610;2022-11-15T06:59:57;10.32;;;5.72;;
74777;SDS011;63298;53.164;8.610;2022-11-15T07:02:23;9.75;;;6.00;;
74777;SDS011;63298;53.164;8.610;2022-11-15T07:04:48;10.50;;;6.13;;
74777;SDS011;63298;53.164;8.610;2022-11-15T07:07:14;13.13;;;8.57;;
74777;SDS011;63298;53.164;8.610;2022-11-15T07:09:39;10.05;;;6.30;;
74777;SDS011;63298;53.164;8.610;2022-11-15T07:12:05;11.45;;;6.32;;
74777;SDS011;63298;53.164;8.610;2022-11-15T07:14:30;10.57;;;6.00;;
74777;SDS011;63298;53.164;8.610;2022-11-15T07:16:56;12.68;;;6.28;;
74777;SDS011;63298;53.164;8.610;2022-11-15T07:19:21;10.98;;;6.30;;
74777;SDS011;63298;53.164;8.610;2022-11-15T07:21:46;11.00;;;6.07;;
74777;SDS011;63298;53.164;8.610;2022-11-15T07:24:12;11.52;;;6.03;;
74777;SDS011;63298;53.164;8.610;2022-11-15T07:26:37;12.55;;;6.00;;
74777;SDS011;63298;53.164;8.610;2022-11-15T07:29:03;15.63;;;6.60;;
74777;SDS011;63298;53.164;8.610;2022-11-15T07:31:28;19.25;;;6.45;;
74777;SDS011;63298;53.164;8.610;2022-11-15T07:33:54;14.68;;;6.25;;
74777;SDS011;63298;53.164;8.610;2022-11-15T07:36:19;9.23;;;6.32;;
74777;SDS011;63298;53.164;8.610;2022-11-15T07:38:45;11.48;;;5.82;;
74777;SDS011;63298;53.164;8.610;2022-11-15T07:41:10;14.27;;;6.57;;
74777;SDS011;63298;53.164;8.610;2022-11-15T07:43:36;9.60;;;5.60;;
74777;SDS011;63298;53.164;8.610;2022-11-15T07:46:06;11.38;;;6.57;;
74777;SDS011;63298;53.164;8.610;2022-11-15T07:48:32;11.82;;;6.45;;
74777;SDS011;63298;53.164;8.610;2022-11-15T07:50:57;11.40;;;6.45;;
74777;SDS011;63298;53.164;8.610;2022-11-15T07:53:23;11.63;;;6.47;;
74777;SDS011;63298;53.164;8.610;2022-11-15T07:55:48;11.02;;;6.15;;
74777;SDS011;63298;53.164;8.610;2022-11-15T07:58:14;12.50;;;6.97;;
74777;SDS011;63298;53.164;8.610;2022-11-15T08:00:39;12.30;;;6.88;;
74777;SDS011;63298;53.164;8.610;2022-11-15T08:03:09;10.38;;;5.70;;
74777;SDS011;63298;53.164;8.610;2022-11-15T08:05:36;10.48;;;6.50;;
74777;SDS011;63298;53.164;8.610;2022-11-15T08:08:03;15.43;;;6.60;;
74777;SDS011;63298;53.164;8.610;2022-11-15T08:10:29;12.18;;;6.70;;
74777;SDS011;63298;53.164;8.610;2022-11-15T08:15:27;13.07;;;6.45;;
74777;SDS011;63298;53.164;8.610;2022-11-15T08:17:56;11.35;;;6.70;;
74777;SDS011;63298;53.164;8.610;2022-11-15T08:20:24;14.93;;;6.82;;
74777;SDS011;63298;53.164;8.610;2022-11-15T08:22:50;12.75;;;6.70;;
74777;SDS011;63298;53.164;8.610;2022-11-15T08:25:16;10.25;;;6.30;;
74777;SDS011;63298;53.164;8.610;2022-11-15T08:27:42;14.40;;;6.68;;
74777;SDS011;63298;53.164;8.610;2022-11-15T08:30:08;11.82;;;6.25;;
74777;SDS011;63298;53.164;8.610;2022-11-15T08:32:33;10.70;;;6.50;;
74777;SDS011;63298;53.164;8.610;2022-11-15T08:34:59;11.38;;;6.68;;
74777;SDS011;63298;53.164;8.610;2022-11-15T08:37:24;14.55;;;7.07;;
74777;SDS011;63298;53.164;8.610;2022-11-15T08:39:49;12.10;;;6.30;;
74777;SDS011;63298;53.164;8.610;2022-11-15T08:42:15;11.57;;;5.70;;
74777;SDS011;63298;53.164;8.610;2022-11-15T08:44:41;13.13;;;6.68;;
74777;SDS011;63298;53.164;8.610;2022-11-15T08:47:07;12.60;;;6.78;;
74777;SDS011;63298;53.164;8.610;2022-11-15T08:49:36;11.75;;;7.10;;
74777;SDS011;63298;53.164;8.610;2022-11-15T08:52:01;12.35;;;7.20;;
74777;SDS011;63298;53.164;8.610;2022-11-15T08:54:27;13.65;;;6.72;;
74777;SDS011;63298;53.164;8.610;2022-11-15T08:56:52;11.75;;;6.30;;
74777;SDS011;63298;53.164;8.610;2022-11-15T08:59:18;12.30;;;7.03;;
74777;SDS011;63298;53.164;8.610;2022-11-15T09:01:43;10.30;;;6.32;;
74777;SDS011;63298;53.164;8.610;2022-11-15T09:04:09;12.68;;;6.50;;
74777;SDS011;63298;53.164;8.610;2022-11-15T09:06:34;13.07;;;6.47;;
74777;SDS011;63298;53.164;8.610;2022-11-15T09:09:00;10.20;;;6.72;;
74777;SDS011;63298;53.164;8.610;2022-11-15T09:11:26;13.98;;;6.80;;
74777;SDS011;63298;53.164;8.610;2022-11-15T09:13:52;9.05;;;5.93;;
74777;SDS011;63298;53.164;8.610;2022-11-15T09:16:17;10.63;;;5.68;;
74777;SDS011;63298;53.164;8.610;2022-11-15T09:18:44;11.13;;;6.35;;
74777;SDS011;63298;53.164;8.610;2022-11-15T09:21:09;10.90;;;6.60;;
74777;SDS011;63298;53.164;8.610;2022-11-15T09:23:35;11.30;;;6.35;;
74777;SDS011;63298;53.164;8.610;2022-11-15T09:26:01;13.27;;;6.40;;
74777;SDS011;63298;53.164;8.610;2022-11-15T09:28:28;10.38;;;6.50;;
74777;SDS011;63298;53.164;8.610;2022-11-15T09:31:00;11.23;;;6.65;;
74777;SDS011;63298;53.164;8.610;2022-11-15T09:33:28;11.63;;;6.50;;
74777;SDS011;63298;53.164;8.610;2022-11-15T09:35:54;12.18;;;6.32;;
74777;SDS011;63298;53.164;8.610;2022-11-15T09:38:25;9.35;;;5.80;;
74777;SDS011;63298;53.164;8.610;2022-11-15T09:40:52;8.45;;;6.03;;
74777;SDS011;63298;53.164;8.610;2022-11-15T09:49:34;12.20;;;5.93;;
74777;SDS011;63298;53.164;8.610;2022-11-15T09:51:59;13.65;;;6.13;;
74777;SDS011;63298;53.164;8.610;2022-11-15T09:54:35;13.25;;;6.25;;
74777;SDS011;63298;53.164;8.610;2022-11-15T10:04:54;7.88;;;5.10;;
74777;SDS011;63298;53.164;8.610;2022-11-15T10:09:58;13.02;;;5.47;;
74777;SDS011;63298;53.164;8.610;2022-11-15T10:12:29;7.57;;;5.20;;
74777;SDS011;63298;53.164;8.610;2022-11-15T10:15:04;8.98;;;5.20;;
74777;SDS011;63298;53.164;8.610;2022-11-15T10:20:44;9.38;;;4.93;;
74777;SDS011;63298;53.164;8.610;2022-11-15T10:23:14;11.40;;;5.22;;
74777;SDS011;63298;53.164;8.610;2022-11-15T10:25:43;7.03;;;5.00;;
74777;SDS011;63298;53.164;8.610;2022-11-15T10:30:38;11.23;;;5.22;;
74777;SDS011;63298;53.164;8.610;2022-11-15T10:33:10;8.50;;;5.05;;
74777;SDS011;63298;53.164;8.610;2022-11-15T10:46:37;8.75;;;4.85;;
74777;SDS011;63298;53.164;8.610;2022-11-15T10:51:53;6.53;;;4.90;;
74777;SDS011;63298;53.164;8.610;2022-11-15T10:54:39;8.77;;;4.63;;
74777;SDS011;63298;53.164;8.610;2022-11-15T10:57:16;7.53;;;4.47;;
74777;SDS011;63298;53.164;8.610;2022-11-15T10:59:48;10.07;;;4.88;;
74777;SDS011;63298;53.164;8.610;2022-11-15T11:07:48;8.77;;;5.10;;
74777;SDS011;63298;53.164;8.610;2022-11-15T11:10:25;6.97;;;4.60;;
74777;SDS011;63298;53.164;8.610;2022-11-15T11:12:50;7.13;;;4.50;;
74777;SDS011;63298;53.164;8.610;2022-11-15T11:15:16;8.75;;;4.80;;
74777;SDS011;63298;53.164;8.610;2022-11-15T11:34:45;5.35;;;3.30;;
74777;SDS011;63298;53.164;8.610;2022-11-15T11:42:33;5.95;;;3.33;;
74777;SDS011;63298;53.164;8.610;2022-11-15T11:50:39;5.45;;;3.40;;
74777;SDS011;63298;53.164;8.610;2022-11-15T11:55:56;11.77;;;3.00;;
74777;SDS011;63298;53.164;8.610;2022-11-15T12:03:45;6.32;;;2.85;;
74777;SDS011;63298;53.164;8.610;2022-11-15T12:09:14;6.97;;;3.08;;
74777;SDS011;63298;53.164;8.610;2022-11-15T12:14:55;3.42;;;2.45;;
74777;SDS011;63298;53.164;8.610;2022-11-15T12:17:44;3.03;;;2.63;;
74777;SDS011;63298;53.164;8.610;2022-11-15T12:28:21;4.93;;;2.40;;
74777;SDS011;63298;53.164;8.610;2022-11-15T12:33:57;2.63;;;2.30;;
74777;SDS011;63298;53.164;8.610;2022-11-15T12:41:27;2.42;;;2.22;;
74777;SDS011;63298;53.164;8.610;2022-11-15T12:43:57;3.83;;;2.63;;
74777;SDS011;63298;53.164;8.610;2022-11-15T13:15:07;1.87;;;1.47;;
74777;SDS011;63298;53.164;8.610;2022-11-15T13:17:53;1.27;;;1.27;;
74777;SDS011;63298;53.164;8.610;2022-11-15T13:20:27;9.07;;;1.48;;
74777;SDS011;63298;53.164;8.610;2022-11-15T13:33:30;1.17;;;1.08;;
74777;SDS011;63298;53.164;8.610;2022-11-15T13:35:58;9.65;;;1.60;;
74777;SDS011;63298;53.164;8.610;2022-11-15T13:38:28;2.63;;;1.35;;
74777;SDS011;63298;53.164;8.610;2022-11-15T13:41:18;2.35;;;1.00;;
74777;SDS011;63298;53.164;8.610;2022-11-15T13:43:46;3.65;;;0.90;;
74777;SDS011;63298;53.164;8.610;2022-11-15T13:48:41;2.20;;;1.42;;
74777;SDS011;63298;53.164;8.610;2022-11-15T13:56:57;2.25;;;1.55;;
74777;SDS011;63298;53.164;8.610;2022-11-15T13:59:28;2.85;;;1.10;;
74777;SDS011;63298;53.164;8.610;2022-11-15T14:02:01;1.50;;;1.00;;
74777;SDS011;63298;53.164;8.610;2022-11-15T14:04:59;1.00;;;1.00;;
74777;SDS011;63298;53.164;8.610;2022-11-15T14:07:28;0.75;;;0.75;;
74777;SDS011;63298;53.164;8.610;2022-11-15T14:09:54;3.53;;;1.20;;
74777;SDS011;63298;53.164;8.610;2022-11-15T14:12:34;6.25;;;2.05;;
74777;SDS011;63298;53.164;8.610;2022-11-15T14:18:04;4.60;;;0.80;;
74777;SDS011;63298;53.164;8.610;2022-11-15T14:20:32;1.55;;;1.20;;
74777;SDS011;63298;53.164;8.610;2022-11-15T14:23:00;1.95;;;0.90;;
74777;SDS011;63298;53.164;8.610;2022-11-15T14:25:28;5.68;;;1.17;;
74777;SDS011;63298;53.164;8.610;2022-11-15T14:28:12;2.80;;;1.00;;
74777;SDS011;63298;53.164;8.610;2022-11-15T14:30:44;1.08;;;1.08;;
74777;SDS011;63298;53.164;8.610;2022-11-15T14:33:17;2.80;;;1.27;;
74777;SDS011;63298;53.164;8.610;2022-11-15T14:35:58;1.35;;;1.08;;
74777;SDS011;63298;53.164;8.610;2022-11-15T14:38:28;2.35;;;1.27;;
74777;SDS011;63298;53.164;8.610;2022-11-15T14:40:54;2.28;;;1.15;;
74777;SDS011;63298;53.164;8.610;2022-11-15T14:43:20;2.25;;;1.02;;
74777;SDS011;63298;53.164;8.610;2022-11-15T14:45:45;0.95;;;0.90;;
74777;SDS011;63298;53.164;8.610;2022-11-15T14:48:11;4.55;;;1.15;;
74777;SDS011;63298;53.164;8.610;2022-11-15T14:50:37;4.45;;;1.30;;
74777;SDS011;63298;53.164;8.610;2022-11-15T14:53:03;5.22;;;1.20;;
74777;SDS011;63298;53.164;8.610;2022-11-15T14:55:30;1.80;;;1.30;;
74777;SDS011;63298;53.164;8.610;2022-11-15T14:57:57;1.80;;;1.00;;
74777;SDS011;63298;53.164;8.610;2022-11-15T15:00:24;2.60;;;1.05;;
74777;SDS011;63298;53.164;8.610;2022-11-15T15:02:51;5.43;;;0.90;;
74777;SDS011;63298;53.164;8.610;2022-11-15T15:05:19;1.58;;;1.00;;
74777;SDS011;63298;53.164;8.610;2022-11-15T15:07:46;2.50;;;0.98;;
74777;SDS011;63298;53.164;8.610;2022-11-15T15:10:13;1.30;;;1.20;;
74777;SDS011;63298;53.164;8.610;2022-11-15T15:12:40;1.13;;;0.93;;
74777;SDS011;63298;53.164;8.610;2022-11-15T15:15:06;2.78;;;0.90;;
74777;SDS011;63298;53.164;8.610;2022-11-15T15:17:37;0.85;;;0.85;;
74777;SDS011;63298;53.164;8.610;2022-11-15T15:20:02;1.50;;;0.90;;
74777;SDS011;63298;53.164;8.610;2022-11-15T15:22:28;1.35;;;1.02;;
74777;SDS011;63298;53.164;8.610;2022-11-15T15:24:55;1.58;;;1.08;;
74777;SDS011;63298;53.164;8.610;2022-11-15T15:27:20;2.78;;;1.23;;
74777;SDS011;63298;53.164;8.610;2022-11-15T15:29:45;2.88;;;1.05;;
74777;SDS011;63298;53.164;8.610;2022-11-15T15:32:11;1.23;;;1.13;;
74777;SDS011;63298;53.164;8.610;2022-11-15T15:34:36;1.17;;;1.10;;
74777;SDS011;63298;53.164;8.610;2022-11-15T15:39:37;1.90;;;1.00;;
74777;SDS011;63298;53.164;8.610;2022-11-15T15:42:03;4.43;;;1.10;;
74777;SDS011;63298;53.164;8.610;2022-11-15T15:44:28;4.82;;;1.60;;
74777;SDS011;63298;53.164;8.610;2022-11-15T15:46:54;5.60;;;1.42;;
74777;SDS011;63298;53.164;8.610;2022-11-15T15:49:19;2.65;;;1.60;;
74777;SDS011;63298;53.164;8.610;2022-11-15T15:51:45;1.40;;;1.30;;
74777;SDS011;63298;53.164;8.610;2022-11-15T15:54:11;1.50;;;1.35;;
74777;SDS011;63298;53.164;8.610;2022-11-15T15:56:36;7.20;;;1.50;;
74777;SDS011;63298;53.164;8.610;2022-11-15T15:59:02;5.38;;;1.42;;
74777;SDS011;63298;53.164;8.610;2022-11-15T16:01:27;2.90;;;1.73;;
74777;SDS011;63298;53.164;8.610;2022-11-15T16:03:53;3.47;;;1.55;;
74777;SDS011;63298;53.164;8.610;2022-11-15T16:06:25;4.25;;;1.60;;
74777;SDS011;63298;53.164;8.610;2022-11-15T16:08:59;2.97;;;1.65;;
74777;SDS011;63298;53.164;8.610;2022-11-15T16:11:24;2.65;;;2.30;;
74777;SDS011;63298;53.164;8.610;2022-11-15T16:13:50;12.57;;;2.10;;
74777;SDS011;63298;53.164;8.610;2022-11-15T16:16:16;5.35;;;2.55;;
74777;SDS011;63298;53.164;8.610;2022-11-15T16:18:42;9.15;;;2.50;;
74777;SDS011;63298;53.164;8.610;2022-11-15T16:21:08;4.88;;;2.40;;
74777;SDS011;63298;53.164;8.610;2022-11-15T16:23:33;4.10;;;2.60;;
74777;SDS011;63298;53.164;8.610;2022-11-15T16:25:59;5.00;;;2.55;;
74777;SDS011;63298;53.164;8.610;2022-11-15T16:28:31;5.97;;;3.15;;
74777;SDS011;63298;53.164;8.610;2022-11-15T16:31:10;11.35;;;2.80;;
74777;SDS011;63298;53.164;8.610;2022-11-15T16:33:36;9.38;;;2.90;;
74777;SDS011;63298;53.164;8.610;2022-11-15T16:36:18;10.70;;;3.15;;
74777;SDS011;63298;53.164;8.610;2022-11-15T16:38:48;10.13;;;3.28;;
74777;SDS011;63298;53.164;8.610;2022-11-15T16:41:14;10.23;;;3.22;;
74777;SDS011;63298;53.164;8.610;2022-11-15T16:43:40;9.18;;;3.17;;
74777;SDS011;63298;53.164;8.610;2022-11-15T16:46:12;7.53;;;2.95;;
74777;SDS011;63298;53.164;8.610;2022-11-15T16:48:49;6.38;;;3.00;;
74777;SDS011;63298;53.164;8.610;2022-11-15T16:51:15;6.88;;;2.90;;
74777;SDS011;63298;53.164;8.610;2022-11-15T16:53:42;8.07;;;2.83;;
74777;SDS011;63298;53.164;8.610;2022-11-15T16:56:16;18.20;;;3.08;;
74777;SDS011;63298;53.164;8.610;2022-11-15T16:58:53;7.65;;;3.22;;
74777;SDS011;63298;53.164;8.610;2022-11-15T17:01:24;9.70;;;2.80;;
74777;SDS011;63298;53.164;8.610;2022-11-15T17:03:50;13.15;;;3.80;;
74777;SDS011;63298;53.164;8.610;2022-11-15T17:06:16;17.05;;;3.17;;
74777;SDS011;63298;53.164;8.610;2022-11-15T17:08:44;10.65;;;3.25;;
74777;SDS011;63298;53.164;8.610;2022-11-15T17:11:12;13.45;;;3.65;;
74777;SDS011;63298;53.164;8.610;2022-11-15T17:13:39;15.25;;;4.57;;
74777;SDS011;63298;53.164;8.610;2022-11-15T17:16:09;11.45;;;3.58;;
74777;SDS011;63298;53.164;8.610;2022-11-15T17:18:39;12.30;;;4.47;;
74777;SDS011;63298;53.164;8.610;2022-11-15T17:21:11;9.82;;;3.20;;
74777;SDS011;63298;53.164;8.610;2022-11-15T17:23:38;7.50;;;2.88;;
74777;SDS011;63298;53.164;8.610;2022-11-15T17:26:04;8.40;;;3.05;;
74777;SDS011;63298;53.164;8.610;2022-11-15T17:28:31;9.07;;;2.92;;
74777;SDS011;63298;53.164;8.610;2022-11-15T17:30:57;11.40;;;3.60;;
74777;SDS011;63298;53.164;8.610;2022-11-15T17:33:24;9.82;;;3.03;;
74777;SDS011;63298;53.164;8.610;2022-11-15T17:35:56;8.82;;;2.90;;
74777;SDS011;63298;53.164;8.610;2022-11-15T17:38:23;9.63;;;2.92;;
74777;SDS011;63298;53.164;8.610;2022-11-15T17:40:58;15.73;;;3.67;;
74777;SDS011;63298;53.164;8.610;2022-11-15T17:43:28;15.88;;;3.95;;
74777;SDS011;63298;53.164;8.610;2022-11-15T17:45:55;13.93;;;4.22;;
74777;SDS011;63298;53.164;8.610;2022-11-15T17:48:21;6.22;;;3.60;;
74777;SDS011;63298;53.164;8.610;2022-11-15T17:50:56;7.70;;;3.45;;
74777;SDS011;63298;53.164;8.610;2022-11-15T17:53:23;11.60;;;3.95;;
74777;SDS011;63298;53.164;8.610;2022-11-15T17:55:49;9.57;;;4.55;;